sensor_id;sensor_type;location;lat;lon;timestamp;temperature;humidity
12815;DHT22;6472;52.328;13.070;2023-05-07T00:01:03;8.20;99.90
12815;DHT22;6472;52.328;13.070;2023-05-07T00:03:32;8.20;99.90
12815;DHT22;6472;52.328;13.070;2023-05-07T00:06:01;8.20;99.90
12815;DHT22;6472;52.328;13.070;2023-05-07T00:08:29;8.20;99.90
12815;DHT22;6472;52.328;13.070;2023-05-07T00:10:56;8.20;99.90
12815;DHT22;6472;52.328;13.070;2023-05-07T00:13:24;8.20;99.90
12815;DHT22;6472;52.328;13.070;2023-05-07T00:15:53;8.20;99.90
12815;DHT22;6472;52.328;13.070;2023-05-07T00:18:22;8.10;99.90
12815;DHT22;6472;52.328;13.070;2023-05-07T00:20:50;8.10;99.90
12815;DHT22;6472;52.328;13.070;2023-05-07T00:23:18;8.20;99.90
12815;DHT22;6472;52.328;13.070;2023-05-07T00:25:46;8.20;99.90
12815;DHT22;6472;52.328;13.070;2023-05-07T00:28:14;8.20;99.90
12815;DHT22;6472;52.328;13.070;2023-05-07T00:30:42;8.30;99.90
12815;DHT22;6472;52.328;13.070;2023-05-07T00:33:10;8.20;99.90
12815;DHT22;6472;52.328;13.070;2023-05-07T00:35:39;8.20;99.90
12815;DHT22;6472;52.328;13.070;2023-05-07T00:38:07;8.20;99.90
12815;DHT22;6472;52.328;13.070;2023-05-07T00:40:35;8.20;99.90
12815;DHT22;6472;52.328;13.070;2023-05-07T00:43:03;8.20;99.90
12815;DHT22;6472;52.328;13.070;2023-05-07T00:45:32;8.30;99.90
12815;DHT22;6472;52.328;13.070;2023-05-07T00:48:01;8.40;99.90
12815;DHT22;6472;52.328;13.070;2023-05-07T00:50:30;8.40;99.90
12815;DHT22;6472;52.328;13.070;2023-05-07T00:53:00;8.30;99.90
12815;DHT22;6472;52.328;13.070;2023-05-07T00:55:28;8.30;99.90
12815;DHT22;6472;52.328;13.070;2023-05-07T00:57:57;8.30;99.90
12815;DHT22;6472;52.328;13.070;2023-05-07T01:00:25;8.30;99.90
12815;DHT22;6472;52.328;13.070;2023-05-07T01:02:53;8.20;99.90
12815;DHT22;6472;52.328;13.070;2023-05-07T01:05:23;8.30;99.90
12815;DHT22;6472;52.328;13.070;2023-05-07T01:07:53;8.20;99.90
12815;DHT22;6472;52.328;13.070;2023-05-07T01:10:24;8.20;99.90
12815;DHT22;6472;52.328;13.070;2023-05-07T01:12:53;8.30;99.90
12815;DHT22;6472;52.328;13.070;2023-05-07T01:15:22;8.30;99.90
12815;DHT22;6472;52.328;13.070;2023-05-07T01:17:50;8.30;99.90
12815;DHT22;6472;52.328;13.070;2023-05-07T01:20:19;8.20;99.90
12815;DHT22;6472;52.328;13.070;2023-05-07T01:22:49;8.20;99.90
12815;DHT22;6472;52.328;13.070;2023-05-07T01:25:18;8.20;99.90
12815;DHT22;6472;52.328;13.070;2023-05-07T01:27:46;8.20;99.90
12815;DHT22;6472;52.328;13.070;2023-05-07T01:30:14;8.20;99.90
12815;DHT22;6472;52.328;13.070;2023-05-07T01:32:44;8.20;99.90
12815;DHT22;6472;52.328;13.070;2023-05-07T01:35:18;8.20;99.90
12815;DHT22;6472;52.328;13.070;2023-05-07T01:37:48;8.20;99.90
12815;DHT22;6472;52.328;13.070;2023-05-07T01:40:16;8.20;99.90
12815;DHT22;6472;52.328;13.070;2023-05-07T01:42:45;8.20;99.90
12815;DHT22;6472;52.328;13.070;2023-05-07T01:45:14;8.30;99.90
12815;DHT22;6472;52.328;13.070;2023-05-07T01:47:42;8.30;99.90
12815;DHT22;6472;52.328;13.070;2023-05-07T01:50:12;8.30;99.90
12815;DHT22;6472;52.328;13.070;2023-05-07T01:52:40;8.30;99.90
12815;DHT22;6472;52.328;13.070;2023-05-07T01:55:10;8.40;99.90
12815;DHT22;6472;52.328;13.070;2023-05-07T01:57:38;8.40;99.90
12815;DHT22;6472;52.328;13.070;2023-05-07T02:00:07;8.30;99.90
12815;DHT22;6472;52.328;13.070;2023-05-07T02:02:36;8.30;99.90
12815;DHT22;6472;52.328;13.070;2023-05-07T02:05:05;8.30;99.90
12815;DHT22;6472;52.328;13.070;2023-05-07T02:07:33;8.30;99.90
12815;DHT22;6472;52.328;13.070;2023-05-07T02:10:02;8.30;99.90
12815;DHT22;6472;52.328;13.070;2023-05-07T02:12:32;8.20;99.90
12815;DHT22;6472;52.328;13.070;2023-05-07T02:15:00;8.20;99.90
12815;DHT22;6472;52.328;13.070;2023-05-07T02:17:28;8.20;99.90
12815;DHT22;6472;52.328;13.070;2023-05-07T02:19:58;8.20;99.90
12815;DHT22;6472;52.328;13.070;2023-05-07T02:22:26;8.20;99.90
12815;DHT22;6472;52.328;13.070;2023-05-07T02:24:54;8.20;99.90
12815;DHT22;6472;52.328;13.070;2023-05-07T02:27:22;8.20;99.90
12815;DHT22;6472;52.328;13.070;2023-05-07T02:29:51;8.20;99.90
12815;DHT22;6472;52.328;13.070;2023-05-07T02:32:19;8.20;99.90
12815;DHT22;6472;52.328;13.070;2023-05-07T02:34:50;8.20;99.90
12815;DHT22;6472;52.328;13.070;2023-05-07T02:37:18;8.20;99.90
12815;DHT22;6472;52.328;13.070;2023-05-07T02:39:46;8.20;99.90
12815;DHT22;6472;52.328;13.070;2023-05-07T02:42:14;8.30;99.90
12815;DHT22;6472;52.328;13.070;2023-05-07T02:44:42;8.20;99.90
12815;DHT22;6472;52.328;13.070;2023-05-07T02:47:13;8.20;99.90
12815;DHT22;6472;52.328;13.070;2023-05-07T02:49:41;8.30;99.90
12815;DHT22;6472;52.328;13.070;2023-05-07T02:52:09;8.20;99.90
12815;DHT22;6472;52.328;13.070;2023-05-07T02:54:37;8.30;99.90
12815;DHT22;6472;52.328;13.070;2023-05-07T02:57:05;8.20;99.90
12815;DHT22;6472;52.328;13.070;2023-05-07T02:59:33;8.20;99.90
12815;DHT22;6472;52.328;13.070;2023-05-07T03:02:01;8.20;99.90
12815;DHT22;6472;52.328;13.070;2023-05-07T03:04:30;8.20;99.90
12815;DHT22;6472;52.328;13.070;2023-05-07T03:06:58;8.20;99.90
12815;DHT22;6472;52.328;13.070;2023-05-07T03:09:26;8.20;99.90
12815;DHT22;6472;52.328;13.070;2023-05-07T03:11:54;8.30;99.90
12815;DHT22;6472;52.328;13.070;2023-05-07T03:14:22;8.30;99.90
12815;DHT22;6472;52.328;13.070;2023-05-07T03:16:50;8.30;99.90
12815;DHT22;6472;52.328;13.070;2023-05-07T03:19:18;8.30;99.90
12815;DHT22;6472;52.328;13.070;2023-05-07T03:21:47;8.30;99.90
12815;DHT22;6472;52.328;13.070;2023-05-07T03:24:15;8.20;99.90
12815;DHT22;6472;52.328;13.070;2023-05-07T03:26:43;8.30;99.90
12815;DHT22;6472;52.328;13.070;2023-05-07T03:29:11;8.30;99.90
12815;DHT22;6472;52.328;13.070;2023-05-07T03:31:39;8.30;99.90
12815;DHT22;6472;52.328;13.070;2023-05-07T03:34:07;8.30;99.90
12815;DHT22;6472;52.328;13.070;2023-05-07T03:36:35;8.30;99.90
12815;DHT22;6472;52.328;13.070;2023-05-07T03:39:05;8.30;99.90
12815;DHT22;6472;52.328;13.070;2023-05-07T03:41:33;8.30;99.90
12815;DHT22;6472;52.328;13.070;2023-05-07T03:44:01;8.30;99.90
12815;DHT22;6472;52.328;13.070;2023-05-07T03:46:29;8.20;99.90
12815;DHT22;6472;52.328;13.070;2023-05-07T03:48:57;8.20;99.90
12815;DHT22;6472;52.328;13.070;2023-05-07T03:51:25;8.20;99.90
12815;DHT22;6472;52.328;13.070;2023-05-07T03:53:53;8.30;99.90
12815;DHT22;6472;52.328;13.070;2023-05-07T03:56:25;8.30;99.90
12815;DHT22;6472;52.328;13.070;2023-05-07T03:58:54;8.40;99.90
12815;DHT22;6472;52.328;13.070;2023-05-07T04:01:22;8.30;99.90
12815;DHT22;6472;52.328;13.070;2023-05-07T04:03:50;8.30;99.90
12815;DHT22;6472;52.328;13.070;2023-05-07T04:06:18;8.40;99.90
12815;DHT22;6472;52.328;13.070;2023-05-07T04:08:46;8.40;99.90
12815;DHT22;6472;52.328;13.070;2023-05-07T04:11:14;8.40;99.90
12815;DHT22;6472;52.328;13.070;2023-05-07T04:13:43;8.40;99.90
12815;DHT22;6472;52.328;13.070;2023-05-07T04:16:11;8.40;99.90
12815;DHT22;6472;52.328;13.070;2023-05-07T04:18:40;8.30;99.90
12815;DHT22;6472;52.328;13.070;2023-05-07T04:21:14;8.30;99.90
12815;DHT22;6472;52.328;13.070;2023-05-07T04:23:42;8.40;99.90
12815;DHT22;6472;52.328;13.070;2023-05-07T04:26:10;8.30;99.90
12815;DHT22;6472;52.328;13.070;2023-05-07T04:28:39;8.40;99.90
12815;DHT22;6472;52.328;13.070;2023-05-07T04:31:08;8.50;99.90
12815;DHT22;6472;52.328;13.070;2023-05-07T04:33:36;8.50;99.90
12815;DHT22;6472;52.328;13.070;2023-05-07T04:36:05;8.40;99.90
12815;DHT22;6472;52.328;13.070;2023-05-07T04:38:33;8.40;99.90
12815;DHT22;6472;52.328;13.070;2023-05-07T04:41:03;8.30;99.90
12815;DHT22;6472;52.328;13.070;2023-05-07T04:43:32;8.30;99.90
12815;DHT22;6472;52.328;13.070;2023-05-07T04:46:00;8.30;99.90
12815;DHT22;6472;52.328;13.070;2023-05-07T04:48:29;8.30;99.90
12815;DHT22;6472;52.328;13.070;2023-05-07T04:50:57;8.50;99.90
12815;DHT22;6472;52.328;13.070;2023-05-07T04:53:25;8.50;99.90
12815;DHT22;6472;52.328;13.070;2023-05-07T04:55:56;8.50;99.90
12815;DHT22;6472;52.328;13.070;2023-05-07T04:58:24;8.50;99.90
12815;DHT22;6472;52.328;13.070;2023-05-07T05:00:52;8.50;99.90
12815;DHT22;6472;52.328;13.070;2023-05-07T05:03:20;8.50;99.90
12815;DHT22;6472;52.328;13.070;2023-05-07T05:05:51;8.50;99.90
12815;DHT22;6472;52.328;13.070;2023-05-07T05:08:19;8.50;99.90
12815;DHT22;6472;52.328;13.070;2023-05-07T05:10:47;8.50;99.90
12815;DHT22;6472;52.328;13.070;2023-05-07T05:13:16;8.50;99.90
12815;DHT22;6472;52.328;13.070;2023-05-07T05:15:45;8.60;99.90
12815;DHT22;6472;52.328;13.070;2023-05-07T05:18:13;8.60;99.90
12815;DHT22;6472;52.328;13.070;2023-05-07T05:20:41;8.60;99.90
12815;DHT22;6472;52.328;13.070;2023-05-07T05:23:10;8.60;99.90
12815;DHT22;6472;52.328;13.070;2023-05-07T05:25:38;8.60;99.90
12815;DHT22;6472;52.328;13.070;2023-05-07T05:28:06;8.60;99.90
12815;DHT22;6472;52.328;13.070;2023-05-07T05:30:34;8.70;99.90
12815;DHT22;6472;52.328;13.070;2023-05-07T05:33:03;8.70;99.90
12815;DHT22;6472;52.328;13.070;2023-05-07T05:35:31;8.70;99.90
12815;DHT22;6472;52.328;13.070;2023-05-07T05:37:59;8.70;99.90
12815;DHT22;6472;52.328;13.070;2023-05-07T05:40:28;8.70;99.90
12815;DHT22;6472;52.328;13.070;2023-05-07T05:42:56;8.70;99.90
12815;DHT22;6472;52.328;13.070;2023-05-07T05:45:24;8.70;99.90
12815;DHT22;6472;52.328;13.070;2023-05-07T05:47:52;8.70;99.90
12815;DHT22;6472;52.328;13.070;2023-05-07T05:50:21;8.70;99.90
12815;DHT22;6472;52.328;13.070;2023-05-07T05:52:49;8.80;99.90
12815;DHT22;6472;52.328;13.070;2023-05-07T05:55:17;8.90;99.90
12815;DHT22;6472;52.328;13.070;2023-05-07T05:57:46;8.90;99.90
12815;DHT22;6472;52.328;13.070;2023-05-07T06:00:15;8.90;99.90
12815;DHT22;6472;52.328;13.070;2023-05-07T06:02:43;8.90;99.90
12815;DHT22;6472;52.328;13.070;2023-05-07T06:05:11;8.90;99.90
12815;DHT22;6472;52.328;13.070;2023-05-07T06:07:39;9.00;99.90
12815;DHT22;6472;52.328;13.070;2023-05-07T06:10:08;9.00;99.90
12815;DHT22;6472;52.328;13.070;2023-05-07T06:12:36;9.10;99.90
12815;DHT22;6472;52.328;13.070;2023-05-07T06:15:06;9.10;99.90
12815;DHT22;6472;52.328;13.070;2023-05-07T06:17:35;9.10;99.90
12815;DHT22;6472;52.328;13.070;2023-05-07T06:20:03;9.20;99.90
12815;DHT22;6472;52.328;13.070;2023-05-07T06:22:31;9.30;99.90
12815;DHT22;6472;52.328;13.070;2023-05-07T06:24:59;9.50;99.90
12815;DHT22;6472;52.328;13.070;2023-05-07T06:27:27;9.60;99.90
12815;DHT22;6472;52.328;13.070;2023-05-07T06:29:55;9.80;99.90
12815;DHT22;6472;52.328;13.070;2023-05-07T06:32:25;9.90;99.90
12815;DHT22;6472;52.328;13.070;2023-05-07T06:34:53;10.10;99.90
12815;DHT22;6472;52.328;13.070;2023-05-07T06:37:22;10.20;99.90
12815;DHT22;6472;52.328;13.070;2023-05-07T06:39:50;10.40;99.90
12815;DHT22;6472;52.328;13.070;2023-05-07T06:42:18;10.50;99.90
12815;DHT22;6472;52.328;13.070;2023-05-07T06:44:46;10.60;99.90
12815;DHT22;6472;52.328;13.070;2023-05-07T06:47:14;10.70;99.90
12815;DHT22;6472;52.328;13.070;2023-05-07T06:49:44;10.70;99.90
12815;DHT22;6472;52.328;13.070;2023-05-07T06:52:12;10.70;99.90
12815;DHT22;6472;52.328;13.070;2023-05-07T06:54:39;10.90;99.90
12815;DHT22;6472;52.328;13.070;2023-05-07T06:57:08;10.70;99.90
12815;DHT22;6472;52.328;13.070;2023-05-07T06:59:35;10.70;99.90
12815;DHT22;6472;52.328;13.070;2023-05-07T07:02:03;10.80;99.90
12815;DHT22;6472;52.328;13.070;2023-05-07T07:04:32;10.90;99.90
12815;DHT22;6472;52.328;13.070;2023-05-07T07:07:01;10.80;99.90
12815;DHT22;6472;52.328;13.070;2023-05-07T07:09:29;10.90;99.90
12815;DHT22;6472;52.328;13.070;2023-05-07T07:11:57;11.00;99.90
12815;DHT22;6472;52.328;13.070;2023-05-07T07:14:25;10.90;99.90
12815;DHT22;6472;52.328;13.070;2023-05-07T07:16:53;10.80;99.90
12815;DHT22;6472;52.328;13.070;2023-05-07T07:19:21;10.70;99.90
12815;DHT22;6472;52.328;13.070;2023-05-07T07:21:49;10.70;99.90
12815;DHT22;6472;52.328;13.070;2023-05-07T07:24:18;10.70;99.90
12815;DHT22;6472;52.328;13.070;2023-05-07T07:26:48;10.70;99.90
12815;DHT22;6472;52.328;13.070;2023-05-07T07:29:16;10.70;99.90
12815;DHT22;6472;52.328;13.070;2023-05-07T07:31:45;10.60;99.90
12815;DHT22;6472;52.328;13.070;2023-05-07T07:34:13;10.60;99.90
12815;DHT22;6472;52.328;13.070;2023-05-07T07:36:41;10.70;99.90
12815;DHT22;6472;52.328;13.070;2023-05-07T07:39:12;10.70;99.90
12815;DHT22;6472;52.328;13.070;2023-05-07T07:41:42;10.80;99.90
12815;DHT22;6472;52.328;13.070;2023-05-07T07:44:10;10.70;99.90
12815;DHT22;6472;52.328;13.070;2023-05-07T07:46:42;10.80;99.90
12815;DHT22;6472;52.328;13.070;2023-05-07T07:49:10;10.80;99.90
12815;DHT22;6472;52.328;13.070;2023-05-07T07:51:38;10.80;99.90
12815;DHT22;6472;52.328;13.070;2023-05-07T07:54:06;10.90;99.90
12815;DHT22;6472;52.328;13.070;2023-05-07T07:56:34;11.10;99.90
12815;DHT22;6472;52.328;13.070;2023-05-07T07:59:04;11.30;99.90
12815;DHT22;6472;52.328;13.070;2023-05-07T08:01:32;11.30;99.90
12815;DHT22;6472;52.328;13.070;2023-05-07T08:04:00;11.40;99.90
12815;DHT22;6472;52.328;13.070;2023-05-07T08:06:30;11.40;99.90
12815;DHT22;6472;52.328;13.070;2023-05-07T08:08:58;11.40;99.90
12815;DHT22;6472;52.328;13.070;2023-05-07T08:11:26;11.40;99.90
12815;DHT22;6472;52.328;13.070;2023-05-07T08:13:55;11.40;99.90
12815;DHT22;6472;52.328;13.070;2023-05-07T08:16:24;11.50;99.90
12815;DHT22;6472;52.328;13.070;2023-05-07T08:18:52;11.50;99.90
12815;DHT22;6472;52.328;13.070;2023-05-07T08:21:20;11.50;99.90
12815;DHT22;6472;52.328;13.070;2023-05-07T08:23:48;11.50;99.90
12815;DHT22;6472;52.328;13.070;2023-05-07T08:26:16;11.60;99.90
12815;DHT22;6472;52.328;13.070;2023-05-07T08:28:44;11.60;99.90
12815;DHT22;6472;52.328;13.070;2023-05-07T08:31:12;11.70;99.90
12815;DHT22;6472;52.328;13.070;2023-05-07T08:33:41;11.90;99.90
12815;DHT22;6472;52.328;13.070;2023-05-07T08:36:09;12.10;99.90
12815;DHT22;6472;52.328;13.070;2023-05-07T08:38:37;12.30;99.90
12815;DHT22;6472;52.328;13.070;2023-05-07T08:41:09;12.60;99.90
12815;DHT22;6472;52.328;13.070;2023-05-07T08:43:41;13.00;99.90
12815;DHT22;6472;52.328;13.070;2023-05-07T08:46:09;13.30;99.90
12815;DHT22;6472;52.328;13.070;2023-05-07T08:48:38;13.10;99.90
12815;DHT22;6472;52.328;13.070;2023-05-07T08:51:12;13.10;99.90
12815;DHT22;6472;52.328;13.070;2023-05-07T08:53:40;13.00;99.90
12815;DHT22;6472;52.328;13.070;2023-05-07T08:56:09;13.10;99.90
12815;DHT22;6472;52.328;13.070;2023-05-07T08:58:37;13.30;99.90
12815;DHT22;6472;52.328;13.070;2023-05-07T09:01:08;13.40;99.90
12815;DHT22;6472;52.328;13.070;2023-05-07T09:03:37;13.40;99.90
12815;DHT22;6472;52.328;13.070;2023-05-07T09:06:07;13.40;99.90
12815;DHT22;6472;52.328;13.070;2023-05-07T09:08:36;13.50;99.90
12815;DHT22;6472;52.328;13.070;2023-05-07T09:11:04;13.40;99.90
12815;DHT22;6472;52.328;13.070;2023-05-07T09:13:32;13.40;99.90
12815;DHT22;6472;52.328;13.070;2023-05-07T09:16:10;13.50;99.90
12815;DHT22;6472;52.328;13.070;2023-05-07T09:18:41;13.60;99.90
12815;DHT22;6472;52.328;13.070;2023-05-07T09:21:15;13.50;99.90
12815;DHT22;6472;52.328;13.070;2023-05-07T09:23:43;13.50;99.90
12815;DHT22;6472;52.328;13.070;2023-05-07T09:26:11;13.60;99.90
12815;DHT22;6472;52.328;13.070;2023-05-07T09:28:39;13.80;99.90
12815;DHT22;6472;52.328;13.070;2023-05-07T09:31:09;14.00;99.90
12815;DHT22;6472;52.328;13.070;2023-05-07T09:33:40;14.10;99.90
12815;DHT22;6472;52.328;13.070;2023-05-07T09:36:09;14.40;99.90
12815;DHT22;6472;52.328;13.070;2023-05-07T09:38:38;14.70;99.90
12815;DHT22;6472;52.328;13.070;2023-05-07T09:41:08;15.00;99.90
12815;DHT22;6472;52.328;13.070;2023-05-07T09:43:37;15.20;99.90
12815;DHT22;6472;52.328;13.070;2023-05-07T09:46:07;15.50;99.90
12815;DHT22;6472;52.328;13.070;2023-05-07T09:48:37;16.00;99.90
12815;DHT22;6472;52.328;13.070;2023-05-07T09:51:18;16.30;99.90
12815;DHT22;6472;52.328;13.070;2023-05-07T09:53:51;15.90;99.90
12815;DHT22;6472;52.328;13.070;2023-05-07T09:56:20;15.90;99.90
12815;DHT22;6472;52.328;13.070;2023-05-07T09:58:49;15.60;99.90
12815;DHT22;6472;52.328;13.070;2023-05-07T10:01:19;15.50;99.90
12815;DHT22;6472;52.328;13.070;2023-05-07T10:03:50;15.50;99.90
12815;DHT22;6472;52.328;13.070;2023-05-07T10:06:19;15.40;99.90
12815;DHT22;6472;52.328;13.070;2023-05-07T10:08:49;15.20;99.90
12815;DHT22;6472;52.328;13.070;2023-05-07T10:11:19;15.10;99.90
12815;DHT22;6472;52.328;13.070;2023-05-07T10:13:48;14.80;99.90
12815;DHT22;6472;52.328;13.070;2023-05-07T10:16:16;14.80;99.90
12815;DHT22;6472;52.328;13.070;2023-05-07T10:18:45;14.80;99.90
12815;DHT22;6472;52.328;13.070;2023-05-07T10:21:17;14.60;99.90
12815;DHT22;6472;52.328;13.070;2023-05-07T10:23:46;14.50;99.90
12815;DHT22;6472;52.328;13.070;2023-05-07T10:26:17;14.60;99.90
12815;DHT22;6472;52.328;13.070;2023-05-07T10:28:50;14.60;99.90
12815;DHT22;6472;52.328;13.070;2023-05-07T10:31:46;14.60;99.90
12815;DHT22;6472;52.328;13.070;2023-05-07T10:34:19;14.60;99.90
12815;DHT22;6472;52.328;13.070;2023-05-07T10:36:49;14.60;99.90
12815;DHT22;6472;52.328;13.070;2023-05-07T10:39:19;14.90;99.90
12815;DHT22;6472;52.328;13.070;2023-05-07T10:41:49;15.10;99.90
12815;DHT22;6472;52.328;13.070;2023-05-07T10:44:27;15.20;99.90
12815;DHT22;6472;52.328;13.070;2023-05-07T10:47:06;15.40;99.90
12815;DHT22;6472;52.328;13.070;2023-05-07T10:49:37;15.20;99.90
12815;DHT22;6472;52.328;13.070;2023-05-07T10:52:13;15.20;99.90
12815;DHT22;6472;52.328;13.070;2023-05-07T10:54:42;15.10;99.90
12815;DHT22;6472;52.328;13.070;2023-05-07T10:57:34;15.20;99.90
12815;DHT22;6472;52.328;13.070;2023-05-07T11:00:41;15.20;99.90
12815;DHT22;6472;52.328;13.070;2023-05-07T11:03:10;15.10;99.90
12815;DHT22;6472;52.328;13.070;2023-05-07T11:05:38;15.20;99.90
12815;DHT22;6472;52.328;13.070;2023-05-07T11:08:07;15.20;99.90
12815;DHT22;6472;52.328;13.070;2023-05-07T11:10:48;15.20;99.90
12815;DHT22;6472;52.328;13.070;2023-05-07T11:13:19;15.00;99.90
12815;DHT22;6472;52.328;13.070;2023-05-07T11:16:17;15.10;99.90
12815;DHT22;6472;52.328;13.070;2023-05-07T11:18:48;15.10;99.90
12815;DHT22;6472;52.328;13.070;2023-05-07T11:21:34;15.20;99.90
12815;DHT22;6472;52.328;13.070;2023-05-07T11:24:03;15.30;99.90
12815;DHT22;6472;52.328;13.070;2023-05-07T11:26:45;15.40;99.90
12815;DHT22;6472;52.328;13.070;2023-05-07T11:29:16;15.50;99.90
12815;DHT22;6472;52.328;13.070;2023-05-07T11:31:51;15.40;99.90
12815;DHT22;6472;52.328;13.070;2023-05-07T11:34:23;15.30;99.90
12815;DHT22;6472;52.328;13.070;2023-05-07T11:36:52;15.30;99.90
12815;DHT22;6472;52.328;13.070;2023-05-07T11:39:27;15.30;99.90
12815;DHT22;6472;52.328;13.070;2023-05-07T11:41:55;15.30;99.90
12815;DHT22;6472;52.328;13.070;2023-05-07T11:44:24;15.40;99.90
12815;DHT22;6472;52.328;13.070;2023-05-07T11:46:52;15.30;99.90
12815;DHT22;6472;52.328;13.070;2023-05-07T11:49:20;15.40;99.90
12815;DHT22;6472;52.328;13.070;2023-05-07T11:51:52;15.50;99.90
12815;DHT22;6472;52.328;13.070;2023-05-07T11:54:20;15.70;99.90
12815;DHT22;6472;52.328;13.070;2023-05-07T11:56:49;15.70;99.90
12815;DHT22;6472;52.328;13.070;2023-05-07T11:59:18;15.80;99.90
12815;DHT22;6472;52.328;13.070;2023-05-07T12:01:47;15.70;99.90
12815;DHT22;6472;52.328;13.070;2023-05-07T12:04:19;15.80;99.90
12815;DHT22;6472;52.328;13.070;2023-05-07T12:06:48;15.70;99.90
12815;DHT22;6472;52.328;13.070;2023-05-07T12:09:17;15.50;99.90
12815;DHT22;6472;52.328;13.070;2023-05-07T12:11:46;15.40;99.90
12815;DHT22;6472;52.328;13.070;2023-05-07T12:14:14;15.30;99.90
12815;DHT22;6472;52.328;13.070;2023-05-07T12:16:44;15.50;99.90
12815;DHT22;6472;52.328;13.070;2023-05-07T12:19:14;15.50;99.90
12815;DHT22;6472;52.328;13.070;2023-05-07T12:21:42;15.60;99.90
12815;DHT22;6472;52.328;13.070;2023-05-07T12:24:10;15.50;99.90
12815;DHT22;6472;52.328;13.070;2023-05-07T12:26:38;15.40;99.90
12815;DHT22;6472;52.328;13.070;2023-05-07T12:29:07;15.40;99.90
12815;DHT22;6472;52.328;13.070;2023-05-07T12:31:35;15.50;99.90
12815;DHT22;6472;52.328;13.070;2023-05-07T12:34:03;15.60;99.90
12815;DHT22;6472;52.328;13.070;2023-05-07T12:36:38;15.60;99.90
12815;DHT22;6472;52.328;13.070;2023-05-07T12:39:06;15.70;99.90
12815;DHT22;6472;52.328;13.070;2023-05-07T12:41:53;15.80;99.90
12815;DHT22;6472;52.328;13.070;2023-05-07T12:44:22;15.70;99.00
12815;DHT22;6472;52.328;13.070;2023-05-07T12:46:50;15.80;99.90
12815;DHT22;6472;52.328;13.070;2023-05-07T12:49:19;16.20;99.90
12815;DHT22;6472;52.328;13.070;2023-05-07T12:51:52;16.50;98.40
12815;DHT22;6472;52.328;13.070;2023-05-07T12:54:30;16.70;97.80
12815;DHT22;6472;52.328;13.070;2023-05-07T12:57:02;16.80;97.60
12815;DHT22;6472;52.328;13.070;2023-05-07T12:59:34;17.10;97.40
12815;DHT22;6472;52.328;13.070;2023-05-07T13:02:02;17.30;95.50
12815;DHT22;6472;52.328;13.070;2023-05-07T13:04:31;17.20;94.00
12815;DHT22;6472;52.328;13.070;2023-05-07T13:07:01;17.30;93.90
12815;DHT22;6472;52.328;13.070;2023-05-07T13:09:29;17.20;94.70
12815;DHT22;6472;52.328;13.070;2023-05-07T13:11:58;17.50;95.10
12815;DHT22;6472;52.328;13.070;2023-05-07T13:14:28;17.70;93.00
12815;DHT22;6472;52.328;13.070;2023-05-07T13:16:56;17.60;92.50
12815;DHT22;6472;52.328;13.070;2023-05-07T13:19:24;17.10;93.20
12815;DHT22;6472;52.328;13.070;2023-05-07T13:21:52;16.80;93.90
12815;DHT22;6472;52.328;13.070;2023-05-07T13:24:21;16.50;94.60
12815;DHT22;6472;52.328;13.070;2023-05-07T13:26:49;16.30;94.20
12815;DHT22;6472;52.328;13.070;2023-05-07T13:29:17;16.20;94.20
12815;DHT22;6472;52.328;13.070;2023-05-07T13:31:45;16.00;95.50
12815;DHT22;6472;52.328;13.070;2023-05-07T13:34:15;16.20;96.80
12815;DHT22;6472;52.328;13.070;2023-05-07T13:36:43;16.70;94.50
12815;DHT22;6472;52.328;13.070;2023-05-07T13:39:12;16.80;94.10
12815;DHT22;6472;52.328;13.070;2023-05-07T13:41:41;17.00;93.30
12815;DHT22;6472;52.328;13.070;2023-05-07T13:44:09;16.90;94.40
12815;DHT22;6472;52.328;13.070;2023-05-07T13:46:38;16.80;94.50
12815;DHT22;6472;52.328;13.070;2023-05-07T13:49:06;16.70;94.40
12815;DHT22;6472;52.328;13.070;2023-05-07T13:51:34;16.70;93.50
12815;DHT22;6472;52.328;13.070;2023-05-07T13:54:02;16.50;92.70
12815;DHT22;6472;52.328;13.070;2023-05-07T13:56:30;16.50;92.90
12815;DHT22;6472;52.328;13.070;2023-05-07T13:59:00;16.80;94.70
12815;DHT22;6472;52.328;13.070;2023-05-07T14:01:28;17.10;94.60
12815;DHT22;6472;52.328;13.070;2023-05-07T14:03:57;17.30;92.10
12815;DHT22;6472;52.328;13.070;2023-05-07T14:06:26;17.30;91.40
12815;DHT22;6472;52.328;13.070;2023-05-07T14:08:54;17.30;91.50
12815;DHT22;6472;52.328;13.070;2023-05-07T14:11:24;17.30;94.10
12815;DHT22;6472;52.328;13.070;2023-05-07T14:13:52;17.30;92.10
12815;DHT22;6472;52.328;13.070;2023-05-07T14:16:22;17.30;90.20
12815;DHT22;6472;52.328;13.070;2023-05-07T14:18:50;17.20;90.00
12815;DHT22;6472;52.328;13.070;2023-05-07T14:21:17;17.10;91.40
12815;DHT22;6472;52.328;13.070;2023-05-07T14:23:46;17.00;90.90
12815;DHT22;6472;52.328;13.070;2023-05-07T14:26:14;17.20;89.90
12815;DHT22;6472;52.328;13.070;2023-05-07T14:28:42;17.10;90.30
12815;DHT22;6472;52.328;13.070;2023-05-07T14:31:13;17.10;91.10
12815;DHT22;6472;52.328;13.070;2023-05-07T14:33:42;17.20;90.70
12815;DHT22;6472;52.328;13.070;2023-05-07T14:36:10;17.00;87.30
12815;DHT22;6472;52.328;13.070;2023-05-07T14:38:38;16.70;90.20
12815;DHT22;6472;52.328;13.070;2023-05-07T14:41:06;16.90;89.60
12815;DHT22;6472;52.328;13.070;2023-05-07T14:43:34;17.00;89.80
12815;DHT22;6472;52.328;13.070;2023-05-07T14:46:02;17.10;90.40
12815;DHT22;6472;52.328;13.070;2023-05-07T14:48:31;17.20;89.50
12815;DHT22;6472;52.328;13.070;2023-05-07T14:51:00;17.50;86.50
12815;DHT22;6472;52.328;13.070;2023-05-07T14:53:28;17.50;87.50
12815;DHT22;6472;52.328;13.070;2023-05-07T14:55:57;17.50;86.50
12815;DHT22;6472;52.328;13.070;2023-05-07T14:58:25;17.40;84.30
12815;DHT22;6472;52.328;13.070;2023-05-07T15:00:53;17.20;86.90
12815;DHT22;6472;52.328;13.070;2023-05-07T15:03:21;17.30;87.80
12815;DHT22;6472;52.328;13.070;2023-05-07T15:05:50;17.20;85.50
12815;DHT22;6472;52.328;13.070;2023-05-07T15:08:19;17.10;85.70
12815;DHT22;6472;52.328;13.070;2023-05-07T15:10:48;16.90;88.00
12815;DHT22;6472;52.328;13.070;2023-05-07T15:13:16;16.80;87.30
12815;DHT22;6472;52.328;13.070;2023-05-07T15:15:44;16.70;88.70
12815;DHT22;6472;52.328;13.070;2023-05-07T15:18:13;16.60;89.40
12815;DHT22;6472;52.328;13.070;2023-05-07T15:20:41;16.40;89.10
12815;DHT22;6472;52.328;13.070;2023-05-07T15:23:09;16.40;90.20
12815;DHT22;6472;52.328;13.070;2023-05-07T15:25:40;16.40;89.10
12815;DHT22;6472;52.328;13.070;2023-05-07T15:28:08;16.40;89.30
12815;DHT22;6472;52.328;13.070;2023-05-07T15:30:36;16.30;87.90
12815;DHT22;6472;52.328;13.070;2023-05-07T15:33:04;16.20;89.10
12815;DHT22;6472;52.328;13.070;2023-05-07T15:35:33;16.10;88.10
12815;DHT22;6472;52.328;13.070;2023-05-07T15:38:03;16.00;90.50
12815;DHT22;6472;52.328;13.070;2023-05-07T15:40:32;16.10;91.10
12815;DHT22;6472;52.328;13.070;2023-05-07T15:43:03;16.00;91.10
12815;DHT22;6472;52.328;13.070;2023-05-07T15:45:31;15.90;90.80
12815;DHT22;6472;52.328;13.070;2023-05-07T15:47:59;15.90;91.90
12815;DHT22;6472;52.328;13.070;2023-05-07T15:50:27;15.90;91.90